Date,TemperatureHighF,TemperatureAvgF,TemperatureLowF,DewpointHighF,DewpointAvgF,DewpointLowF,HumidityHigh,HumidityAvg,HumidityLow,PressureMaxIn,PressureMinIn,WindSpeedMaxMPH,WindSpeedAvgMPH,GustSpeedMaxMPH,PrecipitationSumIn
2012-1-1,45,37,31,40,33,27,100,86,62,30.08,29.62,3,0,12,0.22
2012-1-2,41,34,28,41,22,12,100,64,42,29.70,29.55,6,0,18,0.02
2012-1-3,28,19,8,14,3,-7,67,49,40,30.04,29.70,6,0,17,0.00
2012-1-4,23,15,4,5,-1,-6,65,50,35,30.11,29.87,2,0,9,0.00
2012-1-5,33,26,18,19,12,0,68,57,39,29.92,29.75,7,0,12,0.00
2012-1-6,32,25,18,24,19,7,85,77,61,29.93,29.76,0,0,0,0.00
2012-1-7,44,33,22,33,26,19,95,78,50,29.89,29.66,0,0,6,0.00
2012-1-8,38,32,23,31,21,11,95,66,45,30.29,29.89,3,0,13,0.00
2012-1-9,36,26,18,20,15,9,83,62,43,30.32,29.96,1,0,8,0.00
2012-1-10,42,32,25,29,20,12,77,61,48,29.96,29.77,6,0,14,0.00
2012-1-11,36,30,24,24,18,12,78,61,42,30.15,29.96,3,0,9,0.00
2012-1-12,31,29,27,28,26,23,92,87,78,30.08,29.58,5,0,13,0.00
2012-1-13,36,29,24,36,25,13,100,85,62,29.59,29.16,7,1,24,0.04
2012-1-14,28,21,7,19,10,-4,71,61,47,30.03,29.52,7,1,17,0.00
2012-1-15,13,4,-2,-3,-9,-13,62,56,45,30.51,30.02,3,0,13,0.00
2012-1-16,28,14,-5,20,0,-13,82,55,37,30.56,30.09,7,1,18,0.09
2012-1-17,40,33,27,36,30,20,100,90,74,30.08,29.42,5,0,13,0.36
2012-1-18,41,28,13,40,12,-3,100,54,39,30.15,29.39,8,2,26,0.00
2012-1-19,27,18,4,22,8,-2,92,68,51,30.32,29.97,1,0,8,0.00
2012-1-20,28,19,10,22,8,-6,100,67,41,30.29,29.93,7,0,16,0.12
2012-1-21,20,16,7,15,7,-3,91,71,50,30.36,30.15,0,0,0,0.00
2012-1-22,27,14,-1,16,6,-6,95,73,43,30.58,30.36,1,0,6,0.12
2012-1-23,33,27,18,33,24,12,100,89,77,30.52,29.88,0,0,0,0.00
2012-1-24,45,36,32,43,32,22,100,84,60,30.04,29.86,6,0,16,0.04
2012-1-25,36,33,28,24,21,18,72,63,58,30.22,30.04,6,1,15,0.00
2012-1-26,40,33,27,30,21,13,95,64,41,30.24,29.99,3,0,8,0.00
2012-1-27,36,33,31,36,32,28,100,94,75,29.98,29.33,8,1,23,1.15
2012-1-28,43,36,30,27,23,19,75,61,46,30.00,29.61,8,1,23,0.04
2012-1-29,39,32,28,25,14,9,74,49,33,30.05,29.85,8,1,20,0.00
2012-1-30,35,28,18,27,17,7,92,65,37,30.28,29.93,7,1,23,0.00
2012-1-31,35,28,20,31,24,16,92,87,81,30.27,30.03,0,0,0,0.02
2012-2-1,46,35,28,44,32,23,100,90,62,30.03,29.77,6,0,14,0.01
2012-2-2,37,33,25,28,22,14,74,63,56,30.23,29.96,3,0,13,0.00
2012-2-3,36,27,19,23,13,8,74,58,35,30.40,30.23,5,0,14,0.00
2012-2-4,36,28,20,26,14,4,87,58,33,30.23,30.13,3,0,12,0.00
2012-2-5,34,24,15,18,9,2,80,54,29,30.18,30.06,2,0,12,0.00
2012-2-6,46,33,21,26,17,9,87,56,30,30.05,29.82,6,1,18,0.00
2012-2-7,41,33,22,29,20,8,81,60,46,30.27,29.89,6,0,15,0.00
2012-2-8,39,26,14,15,8,2,80,47,25,30.30,30.05,3,0,12,0.00
2012-2-9,45,32,25,22,14,4,81,52,26,30.10,29.98,5,0,14,0.00
2012-2-10,45,33,22,30,17,8,91,58,23,30.11,29.88,6,0,15,0.00
2012-2-11,39,32,18,26,19,6,74,58,49,29.89,29.59,5,0,14,0.00
2012-2-12,21,14,10,6,-2,-7,63,49,35,29.85,29.65,6,1,21,0.00
2012-2-13,36,24,9,20,9,-2,72,54,33,29.97,29.78,7,0,21,0.00
2012-2-14,38,29,18,27,17,7,91,65,36,30.11,29.97,3,0,10,0.00
2012-2-15,43,34,30,33,25,20,92,71,48,30.26,30.10,0,0,3,0.00
2012-2-16,45,36,28,36,29,22,100,80,48,30.30,30.02,2,0,10,0.06
2012-2-17,48,37,28,40,28,12,100,72,42,30.02,29.88,5,0,15,0.01
2012-2-18,43,34,28,24,19,13,78,55,34,29.99,29.84,7,1,22,0.00
2012-2-19,41,31,25,24,16,7,78,55,38,30.08,29.99,5,0,12,0.00
2012-2-20,38,28,22,17,10,3,65,48,27,30.32,30.02,8,0,22,0.00
2012-2-21,42,31,18,32,19,10,95,65,35,30.34,29.85,3,0,13,0.00
2012-2-22,50,38,30,44,25,10,100,67,30,29.85,29.52,7,0,19,0.02
2012-2-23,46,37,30,44,28,16,100,71,46,29.79,29.40,6,0,16,0.08
2012-2-24,35,32,29,34,28,19,100,85,64,29.81,29.23,1,0,6,0.49
2012-2-25,39,32,24,34,23,12,100,69,49,29.82,29.19,7,2,25,0.36
2012-2-26,38,26,19,13,4,-4,64,40,24,30.44,29.83,7,1,18,0.04
2012-2-27,40,29,16,28,17,2,87,62,41,30.45,30.04,2,0,10,0.00
2012-2-28,41,34,25,34,18,9,84,53,35,30.40,30.04,8,1,19,0.00
2012-2-29,34,29,25,28,22,13,92,78,55,30.40,29.98,1,0,10,0.00
2012-3-1,29,25,21,28,21,15,100,84,73,30.06,29.85,8,1,16,0.00
2012-3-2,31,26,20,26,20,14,92,78,67,30.17,29.98,2,0,6,0.06
2012-3-3,42,33,27,40,31,17,100,92,56,29.98,29.37,3,0,15,0.32
2012-3-4,42,32,24,27,18,11,87,59,40,29.68,29.54,9,0,14,0.01
2012-3-5,34,25,14,17,10,0,68,53,42,30.34,29.64,7,0,15,0.00
2012-3-6,39,23,8,13,4,-7,67,47,22,30.57,30.34,5,0,12,0.00
2012-3-7,56,36,20,34,20,7,84,56,30,30.55,30.22,6,0,13,0.00
2012-3-8,63,49,37,45,36,26,82,62,46,30.22,29.65,8,2,25,0.00
2012-3-9,54,36,29,40,21,3,100,55,29,30.14,29.68,7,1,17,0.05
2012-3-10,42,31,26,31,21,6,100,69,35,30.50,30.14,5,0,12,0.02
2012-3-11,56,39,26,28,20,12,88,52,26,30.48,30.23,6,1,16,0.00
2012-3-12,66,47,32,39,29,17,88,57,23,30.31,30.12,5,0,10,0.00
2012-3-13,68,51,42,51,41,32,95,70,47,30.12,29.89,6,0,15,0.00
2012-3-14,62,46,39,57,43,36,100,89,57,30.27,29.98,6,0,13,0.02
2012-3-15,43,38,35,40,32,28,96,79,62,30.40,30.26,0,0,2,0.01
2012-3-16,43,39,35,42,35,30,100,86,72,30.36,30.12,1,0,6,0.12
2012-3-17,54,43,36,46,39,32,100,87,61,30.39,30.20,2,0,10,0.00
2012-3-18,78,52,35,56,40,25,100,70,23,30.34,30.14,3,0,12,0.00
2012-3-19,78,57,44,53,45,40,100,69,32,30.30,30.15,5,0,12,0.00
2012-3-20,78,58,41,55,45,36,95,68,35,30.34,30.22,6,0,10,0.00
2012-3-21,81,62,48,57,45,15,100,63,16,30.38,30.22,5,0,12,0.00
2012-3-22,82,64,50,59,47,33,100,61,25,30.25,30.02,5,0,12,0.00
2012-3-23,72,60,50,48,31,9,64,37,16,30.19,30.05,5,0,20,0.00
2012-3-24,59,50,46,33,21,10,55,33,22,30.19,30.06,1,0,6,0.00
2012-3-25,48,44,39,44,37,29,95,78,53,30.06,29.74,0,0,7,0.20
2012-3-26,44,36,28,44,21,-1,100,60,28,30.03,29.65,8,2,23,0.01
2012-3-27,45,31,22,4,-4,-14,36,23,10,30.21,30.03,6,1,24,0.00
2012-3-28,45,37,31,33,25,9,81,62,39,30.17,29.59,1,0,5,0.08
2012-3-29,43,39,32,100,30,22,89,69,54,29.95,29.59,3,0,16,0.01
2012-3-30,49,37,30,25,13,2,72,40,17,30.06,29.95,5,0,19,0.00
2012-3-31,50,38,30,27,20,11,77,49,36,30.07,29.89,2,0,7,0.00
2012-4-1,51,38,25,38,27,16,92,70,27,29.91,29.66,5,0,9,0.05
2012-4-2,53,40,32,38,25,2,100,63,19,29.85,29.64,5,1,18,0.01
2012-4-3,56,40,28,14,8,0,50,29,13,29.89,29.76,7,0,18,0.00
2012-4-4,60,46,33,31,19,11,69,38,18,29.76,29.51,7,0,21,0.00
2012-4-5,48,40,30,31,23,12,75,53,33,29.92,29.67,5,0,15,0.00
2012-4-6,52,38,28,29,18,9,87,49,23,30.02,29.91,3,0,14,0.00
2012-4-7,58,41,29,30,19,13,74,43,26,30.04,29.94,6,0,18,0.00
2012-4-8,50,43,37,30,24,20,64,47,37,30.00,29.60,3,0,14,0.00
2012-4-9,50,42,34,37,29,18,81,59,44,29.62,29.50,7,2,20,0.00
2012-4-10,54,44,36,30,26,20,75,50,36,29.77,29.59,7,1,18,0.00
2012-4-11,57,43,30,41,31,22,96,68,30,29.92,29.78,2,0,10,0.02
2012-4-12,56,44,37,44,36,26,100,75,43,30.11,29.92,5,0,12,0.05
2012-4-13,65,46,30,46,27,6,100,58,15,30.18,30.03,3,0,15,0.00
2012-4-14,69,52,36,41,25,6,96,45,12,30.17,29.99,5,0,14,0.00
2012-4-15,77,60,43,47,40,29,79,49,33,30.02,29.91,6,0,16,0.00
2012-4-16,90,71,57,62,50,38,89,54,23,30.03,29.85,8,0,17,0.00
2012-4-17,78,67,58,55,36,13,80,40,11,30.13,29.89,5,0,15,0.00
2012-4-18,63,53,40,35,27,6,76,39,21,30.30,30.13,2,0,12,0.00
2012-4-19,74,52,34,47,34,20,96,61,16,30.14,29.95,5,0,10,0.00
2012-4-20,80,62,45,52,41,28,92,54,19,30.02,29.87,6,0,18,0.00
2012-4-21,78,64,54,54,48,41,76,59,34,29.89,29.66,7,0,16,0.00
2012-4-22,55,47,40,51,44,35,100,89,74,29.89,29.74,3,0,13,1.08
2012-4-23,57,46,38,56,44,35,100,92,79,29.77,29.31,5,0,15,1.29
2012-4-24,54,46,39,42,31,21,83,60,33,29.70,29.38,7,1,17,0.02
2012-4-25,56,44,32,40,30,19,92,61,29,29.89,29.70,7,0,18,0.00
2012-4-26,63,47,32,47,34,21,96,67,26,29.96,29.59,5,0,13,0.26
2012-4-27,52,45,36,49,33,20,100,66,42,30.04,29.54,6,1,20,0.13
2012-4-28,55,42,32,22,15,6,58,37,16,30.13,30.04,6,1,14,0.00
2012-4-29,57,43,30,34,12,0,81,32,13,30.24,30.04,7,1,20,0.00
2012-4-30,65,48,32,30,17,5,47,30,17,30.36,30.19,1,0,8,0.00
2012-5-1,51,44,41,45,39,27,100,84,45,30.20,30.13,2,0,7,0.99
2012-5-2,52,46,42,46,42,38,95,85,73,30.27,30.19,1,0,7,0.00
2012-5-3,54,49,44,50,46,42,100,91,82,30.24,30.11,0,0,0,0.12
2012-5-4,55,52,49,54,50,47,100,95,86,30.13,29.97,1,0,6,0.16
2012-5-5,69,56,47,57,47,32,100,73,46,30.14,29.97,3,0,11,0.02
2012-5-6,69,56,47,51,43,31,96,65,33,30.17,30.07,2,0,8,0.00
2012-5-7,73,56,39,55,38,32,96,57,27,30.20,30.07,1,0,9,0.00
2012-5-8,53,50,46,51,46,36,100,88,56,30.10,29.87,1,0,10,1.30
2012-5-9,64,56,51,60,55,51,100,95,77,29.87,29.63,0,0,0,0.00
2012-5-10,64,54,46,56,49,37,100,84,51,29.70,29.46,5,0,15,0.78
2012-5-11,66,51,42,48,34,19,92,56,24,30.08,29.70,5,0,14,0.00
2012-5-12,78,58,36,50,34,22,100,53,17,30.17,30.07,6,0,15,0.00
2012-5-13,82,64,49,57,46,34,96,58,24,30.20,30.07,3,0,12,0.00
2012-5-14,67,60,55,60,55,46,100,83,64,30.23,30.15,2,0,6,0.42
2012-5-15,68,61,58,61,55,44,100,84,54,30.17,30.01,3,0,10,0.61
2012-5-16,73,62,57,67,58,49,100,87,65,30.01,29.82,2,0,82,0.39
2012-5-17,68,56,44,58,36,20,100,54,23,30.21,29.92,3,0,10,0.01
2012-5-18,76,56,37,51,38,28,100,59,23,30.31,30.17,2,0,8,0.00
2012-5-19,82,62,45,51,42,33,92,55,25,30.25,30.13,1,0,6,0.00
2012-5-20,86,67,52,57,48,37,96,56,30,30.34,30.21,1,0,6,0.00
2012-5-21,79,62,49,61,50,36,96,68,37,30.34,30.13,1,0,7,0.03
2012-5-22,67,62,58,64,60,56,100,93,83,30.12,29.91,0,0,5,0.29
2012-5-23,79,66,57,64,58,54,100,79,51,30.10,29.91,0,0,6,0.00
2012-5-24,74,65,60,66,59,51,100,82,57,30.29,30.10,2,0,8,0.04
2012-5-25,70,64,60,65,61,57,100,91,73,30.30,30.13,0,0,5,0.13
2012-5-26,83,70,60,68,53,28,96,64,20,30.18,30.07,2,0,12,0.00
2012-5-27,83,67,54,58,53,49,96,64,37,30.26,30.06,2,0,7,0.00
2012-5-28,83,68,56,60,52,43,77,59,44,30.12,29.93,2,0,7,0.00
2012-5-29,65,61,58,62,58,55,100,90,77,29.99,29.77,0,0,15,1.79
2012-5-30,77,66,60,67,59,48,100,80,46,29.80,29.73,2,0,8,0.00
2012-5-31,77,65,56,59,48,33,100,60,27,30.01,29.78,3,0,13,0.00
2012-6-1,74,61,50,54,44,37,96,56,33,30.15,30.02,2,0,7,0.00
2012-6-2,56,54,50,56,49,39,100,85,61,30.07,29.76,1,0,8,2.12
2012-6-3,63,56,52,56,51,46,100,83,66,29.78,29.73,5,0,9,0.03
2012-6-4,53,51,49,50,47,43,100,87,76,29.88,29.71,2,0,13,0.26
2012-6-5,62,52,48,55,48,44,100,84,64,29.98,29.85,2,0,8,0.01
2012-6-6,69,56,49,66,50,36,100,85,43,30.04,29.97,3,0,7,0.06
2012-6-7,71,59,50,63,54,46,100,85,56,30.03,29.94,3,0,7,0.08
2012-6-8,77,61,47,62,51,42,100,74,41,29.99,29.77,3,0,10,0.03
2012-6-9,78,63,51,61,46,31,100,61,28,30.02,29.83,2,0,9,0.01
2012-6-10,81,65,49,59,46,34,92,58,24,30.25,30.02,2,0,7,0.00
2012-6-11,77,64,53,59,53,48,89,68,40,30.33,30.22,2,0,12,0.00
2012-6-12,77,64,55,62,54,48,96,69,53,30.23,29.99,3,0,16,0.12
2012-6-13,72,63,59,69,60,54,100,90,71,30.15,29.95,1,0,6,0.63
2012-6-14,78,63,53,58,50,42,100,66,37,30.34,30.15,3,0,8,0.07
2012-6-15,78,62,49,62,48,40,96,64,30,30.42,30.32,3,0,10,0.02
2012-6-16,78,63,49,64,54,48,96,74,52,30.43,30.31,1,0,6,0.00
2012-6-17,76,60,48,58,51,45,96,74,52,30.34,30.14,2,0,7,0.00
2012-6-18,68,59,52,58,51,43,100,78,52,30.23,30.15,2,0,7,0.00
2012-6-19,80,65,51,67,57,49,96,79,61,30.20,30.04,3,0,8,0.00
2012-6-20,90,75,63,69,61,53,96,66,36,30.07,29.92,2,0,10,0.00
2012-6-21,90,77,68,76,62,51,96,64,41,29.93,29.79,2,0,16,0.00
2012-6-22,90,75,65,74,59,48,96,62,35,29.83,29.74,1,0,10,0.00
2012-6-23,86,69,59,62,55,38,96,63,33,29.99,29.83,3,0,10,0.51
2012-6-24,82,66,54,64,48,36,100,60,27,30.02,29.91,2,0,9,0.02
2012-6-25,73,63,57,70,59,51,100,87,70,29.92,29.70,1,0,7,0.31
2012-6-26,68,60,54,58,52,47,100,76,58,29.71,29.63,5,1,13,0.00
2012-6-27,73,63,57,57,53,48,93,70,51,29.79,29.60,5,1,13,0.00
2012-6-28,80,67,56,58,51,40,86,59,35,29.81,29.73,2,0,10,0.00
2012-6-29,86,70,58,72,56,38,96,68,31,29.76,29.57,3,0,14,0.08
2012-6-30,86,71,58,66,52,46,96,55,31,29.78,29.68,5,0,15,0.00
2012-7-1,88,73,62,66,55,41,92,58,24,29.89,29.76,3,0,10,0.00
2012-7-2,81,70,62,62,55,45,87,62,38,29.97,29.89,3,0,12,0.00
2012-7-3,82,68,56,65,55,40,100,68,29,30.00,29.88,2,0,11,0.00
2012-7-4,83,71,61,73,63,56,100,80,47,29.90,29.70,5,0,11,0.31
2012-7-5,79,70,63,67,59,51,100,72,48,29.93,29.75,3,0,13,0.00
2012-7-6,85,71,58,64,59,48,96,69,41,30.00,29.86,1,0,6,0.00
2012-7-7,78,71,65,69,62,55,96,76,54,29.88,29.79,1,0,7,0.00
2012-7-8,84,70,61,65,54,42,96,61,34,29.95,29.84,3,0,11,0.00
2012-7-9,81,66,52,57,46,29,96,55,29,30.06,29.95,3,0,10,0.00
2012-7-10,81,64,49,51,36,22,35,35,35,30.15,30.05,2,0,10,0.00
2012-7-11,86,69,52,55,40,25,35,35,35,30.25,30.15,1,0,6,0.00
2012-7-12,89,73,61,58,45,33,70,37,23,30.24,30.11,1,0,8,0.00
2012-7-13,90,75,63,67,61,50,93,65,34,30.25,30.14,1,0,8,0.00
2012-7-14,89,76,68,71,61,46,93,63,34,30.20,30.10,2,0,8,0.00
2012-7-15,86,74,64,70,62,52,100,70,35,30.16,29.92,1,0,10,0.20
2012-7-16,83,73,66,70,63,54,100,73,46,29.92,29.79,1,0,8,0.22
2012-7-17,91,79,68,74,66,55,96,68,40,29.84,29.67,5,0,16,0.05
2012-7-18,87,75,66,73,64,51,96,71,44,29.98,29.73,2,0,9,0.03
2012-7-19,80,67,56,61,50,40,100,58,34,30.10,29.97,2,0,7,0.01
2012-7-20,77,66,59,57,51,46,86,59,43,30.17,30.08,1,0,5,0.00
2012-7-21,81,67,52,61,51,42,96,60,32,30.16,30.08,2,0,7,0.00
2012-7-22,86,72,60,62,55,49,92,60,35,30.17,30.06,2,0,10,0.00
2012-7-23,86,77,65,70,63,53,96,64,46,30.11,29.79,3,0,9,0.05
2012-7-24,84,73,63,68,60,48,93,66,39,29.81,29.59,3,0,13,0.05
2012-7-25,80,67,57,54,49,41,72,53,35,29.90,29.78,3,0,13,0.02
2012-7-26,75,67,60,65,58,50,100,74,65,29.85,29.66,1,0,6,0.01
2012-7-27,73,67,64,70,64,59,100,89,68,29.97,29.67,0,0,0,0.12
2012-7-28,79,68,62,69,64,58,100,86,62,30.06,29.97,0,0,5,0.09
2012-7-29,74,66,59,66,62,56,100,88,73,30.14,30.00,2,0,6,0.06
2012-7-30,82,68,57,66,59,50,100,76,47,30.19,30.08,2,0,9,0.04
2012-7-31,79,66,59,64,60,57,100,82,47,30.16,30.08,0,0,6,0.01
2012-8-4,77,71,67,74,66,55,94,86,47,30.26,30.21,3,0,11,0.01
2012-8-5,88,74,64,74,68,48,100,85,46,30.25,29.94,3,0,14,0.02
2012-8-6,78,68,58,68,56,45,93,67,42,30.07,29.95,3,0,9,0.04
2012-8-7,83,67,54,62,56,50,100,70,43,30.09,29.97,2,0,7,0.03
2012-8-8,79,67,58,77,55,42,96,71,30,30.03,29.96,0,0,5,0.01
2012-8-9,84,71,64,67,62,53,96,74,51,30.03,29.91,0,0,2,0.01
2012-8-10,78,70,66,70,66,60,100,87,62,29.96,29.85,2,0,7,0.02
2012-8-11,78,70,66,69,66,60,100,87,66,29.98,29.86,0,0,5,0.04
2012-8-12,82,73,64,75,68,64,100,87,66,29.98,29.88,0,0,5,0.03
2012-8-13,81,69,61,67,59,50,100,73,44,30.03,29.94,3,0,10,0.02
2012-8-14,80,69,60,66,60,53,100,77,48,30.02,29.94,2,0,7,0.02
2012-8-15,80,70,63,70,62,55,100,79,50,29.98,29.88,3,0,9,0.02
2012-8-16,80,70,62,71,60,50,100,74,47,29.93,29.84,3,0,10,0.01
2012-8-17,84,69,58,66,60,52,100,76,46,29.91,29.76,6,0,22,0.01
2012-8-18,78,66,57,64,54,36,93,69,34,29.97,29.87,2,0,9,0.02
2012-8-19,75,62,51,56,51,45,96,71,44,30.05,29.94,1,0,6,0.01
2012-8-20,77,64,51,60,53,46,100,73,43,29.99,29.87,1,0,6,0.01
2012-8-21,80,68,60,62,58,39,96,75,36,30.08,29.96,2,0,9,0.00
2012-8-22,82,70,56,61,52,31,96,56,29,30.21,30.12,2,0,10,0.00
2012-8-23,83,68,57,64,57,46,96,70,34,30.20,30.11,1,0,8,0.00
2012-8-24,82,68,56,65,58,50,100,73,42,30.27,30.17,1,0,6,0.00
2012-8-25,80,69,60,65,60,51,96,75,50,30.39,30.27,1,0,5,0.00
2012-8-26,84,68,57,64,58,48,100,73,47,30.39,30.25,2,0,6,0.00
2012-8-27,85,70,57,65,59,54,100,71,41,30.26,29.95,5,0,13,0.00
2012-8-28,83,71,61,70,61,48,100,74,49,29.96,29.77,2,0,8,0.21
2012-8-29,76,62,52,55,45,37,93,59,35,30.06,29.96,2,0,9,0.01
2012-8-30,79,64,47,56,50,43,96,65,36,30.10,29.98,2,0,10,0.00
2012-8-31,84,71,62,64,56,46,96,62,37,30.00,29.82,3,0,13,0.00
2012-9-1,81,70,60,68,60,52,100,72,50,30.18,29.91,3,0,9,0.00
2012-9-2,76,64,57,62,55,47,100,74,44,30.21,30.12,3,0,8,0.00
2012-9-3,79,65,58,61,55,48,96,72,43,30.28,30.16,1,0,9,0.00
2012-9-4,66,63,58,65,62,54,100,95,86,30.18,29.91,0,0,3,0.10
2012-9-5,76,68,63,69,62,54,100,83,60,29.91,29.73,5,0,9,0.03
2012-9-6,76,68,62,66,62,58,100,84,64,29.97,29.87,2,0,7,0.02
2012-9-7,81,69,61,69,60,47,100,78,37,29.99,29.91,1,0,8,0.01
2012-9-8,81,69,60,70,63,55,100,82,52,29.93,29.62,6,0,15,0.01
2012-9-9,74,62,54,60,53,40,96,76,39,29.92,29.74,2,0,9,0.02
2012-9-10,67,57,50,55,46,37,96,68,43,30.11,29.92,3,0,12,0.01
2012-9-11,72,56,44,49,41,29,92,62,27,30.31,30.12,2,0,9,0.01
2012-9-12,78,59,45,54,48,41,96,71,35,30.42,30.31,1,0,6,0.01
2012-9-13,82,65,52,65,55,44,100,74,36,30.40,30.28,1,0,8,0.01
2012-9-14,82,66,55,64,56,48,100,74,43,30.30,30.09,3,0,10,0.01
2012-9-15,72,61,49,60,48,33,100,68,36,30.10,30.04,3,0,13,0.00
2012-9-16,70,54,44,50,41,23,96,68,28,30.14,30.03,2,0,10,0.01
2012-9-17,77,57,41,52,46,38,96,72,40,30.16,30.04,1,0,7,0.00
2012-9-18,68,60,51,65,57,48,96,90,77,30.08,29.68,3,0,13,0.04
2012-9-19,69,58,45,65,45,27,100,65,30,30.25,29.68,2,0,10,0.02
2012-9-20,67,50,39,46,40,34,100,72,38,30.35,30.19,1,0,7,0.01
2012-9-21,70,54,43,55,48,40,96,80,52,30.23,30.11,1,0,7,0.01
2012-9-22,74,61,50,60,54,49,100,82,58,30.10,29.84,2,0,10,0.01
2012-9-23,67,57,44,61,45,30,100,69,34,30.12,29.83,3,0,13,0.02
2012-9-24,64,49,39,46,39,27,100,74,36,30.17,30.08,3,0,7,0.01
2012-9-25,70,52,39,50,40,32,96,69,28,30.17,30.13,2,0,16,0.00
2012-9-26,67,60,53,58,53,44,93,79,63,30.14,30.02,5,0,10,0.01
2012-9-27,67,56,43,60,45,31,100,70,39,30.30,30.04,3,0,10,0.01
2012-9-28,51,47,41,50,46,39,100,93,87,30.31,30.08,0,0,3,0.01
2012-9-29,56,52,49,54,50,48,100,92,80,30.08,29.92,0,0,5,0.01
2012-9-30,59,54,49,57,51,48,100,92,80,29.96,29.71,0,0,0,0.01
2012-10-1,62,54,49,53,50,48,100,85,67,29.96,29.69,6,0,13,0.01
2012-10-2,64,57,50,57,52,45,96,85,56,30.11,29.96,1,0,6,0.01
2012-10-3,62,60,58,62,58,56,100,95,90,30.22,30.09,0,0,0,0.01
2012-10-4,61,60,59,60,58,56,100,96,87,30.23,30.06,0,0,0,0.02
2012-10-5,73,61,54,60,55,43,100,82,44,30.08,29.94,1,0,7,0.01
2012-10-6,74,59,49,62,52,42,100,79,46,29.95,29.72,6,0,17,0.01
2012-10-7,54,48,41,47,40,32,96,73,48,30.11,29.95,2,0,9,0.01
2012-10-8,55,46,40,46,40,32,100,81,48,30.36,30.08,1,0,5,0.01
2012-10-9,53,47,38,47,42,38,100,84,64,30.35,30.19,2,0,8,0.01
2012-10-10,54,50,47,54,47,41,100,91,79,30.19,29.76,1,0,12,0.01
2012-10-11,56,46,37,41,31,23,79,58,35,30.14,29.83,6,0,13,0.01
2012-10-12,52,42,33,41,29,18,89,64,34,30.39,30.01,5,0,13,0.01
2012-10-13,52,40,28,35,25,13,92,61,28,30.48,30.31,3,0,13,1.66
2012-10-14,56,48,39,53,44,26,100,89,59,30.32,29.93,3,0,8,0.49
2012-10-15,69,59,48,61,55,47,100,87,63,29.93,29.64,5,0,15,0.07
2012-10-16,58,48,36,58,37,28,100,67,44,29.92,29.62,5,1,17,0.11
2012-10-17,61,44,31,44,33,21,96,69,29,30.04,29.92,2,0,9,0.24
2012-10-18,65,49,37,47,40,30,100,75,34,30.16,30.04,1,0,9,0.00
2012-10-19,60,54,48,59,52,46,100,92,74,30.14,29.78,1,0,10,0.65
2012-10-20,71,60,49,62,52,36,100,79,36,29.78,29.64,3,0,10,0.22
2012-10-21,61,50,41,43,38,31,100,66,39,29.91,29.77,6,0,21,0.00
2012-10-22,63,51,44,47,36,28,92,59,36,30.05,29.91,5,0,17,0.00
2012-10-23,63,49,41,45,38,33,92,69,39,30.16,30.05,1,0,8,0.00
2012-10-24,60,46,35,45,34,18,100,69,24,30.26,30.15,1,0,5,0.00
2012-10-25,61,52,44,50,42,30,96,73,37,30.35,30.26,2,0,7,0.00
2012-10-26,66,54,47,55,50,45,100,85,60,30.29,30.15,2,0,8,0.00
2012-10-27,60,52,46,54,47,42,100,84,59,30.17,30.06,0,0,0,0.00
2012-10-28,54,51,48,47,42,33,87,72,50,30.08,29.89,6,0,12,0.00
2012-10-29,58,52,48,54,50,45,100,90,87,29.89,29.29,8,2,33,2.04
2012-10-30,61,58,55,60,54,51,100,87,87,29.59,29.36,6,0,15,0.69
2012-10-31,60,50,44,60,44,37,100,80,63,29.59,29.50,5,0,16,0.71
2012-11-1,51,46,43,42,38,34,85,74,58,29.58,29.53,7,0,12,0.00
2012-11-2,51,44,38,43,35,29,92,70,51,29.65,29.56,5,0,14,0.00
2012-11-3,49,43,40,34,30,26,72,62,45,29.84,29.64,5,0,17,0.00
2012-11-4,46,40,35,32,28,24,75,62,49,29.99,29.83,5,0,16,0.00
2012-11-5,40,34,28,24,18,10,63,53,45,30.15,29.98,3,0,10,0.00
2012-11-6,40,29,23,25,17,2,91,64,28,30.25,30.15,2,0,9,0.00
2012-11-7,36,31,24,23,15,6,91,53,31,30.25,29.89,3,0,22,0.00
2012-11-8,38,34,30,37,30,16,100,86,47,29.89,29.76,6,1,18,0.15
2012-11-9,50,40,34,34,24,11,78,57,28,30.11,29.82,7,1,23,0.00
2012-11-10,51,40,32,36,26,13,88,61,32,30.48,30.11,5,0,11,0.00
2012-11-11,60,45,31,48,37,28,100,76,53,30.51,30.39,3,0,12,0.00
2012-11-12,66,52,40,56,45,38,100,78,43,30.46,30.22,8,0,17,0.00
2012-11-13,62,46,31,59,41,25,100,84,67,30.47,30.09,7,1,18,0.25
2012-11-14,46,35,27,33,25,11,96,72,35,30.59,30.46,2,0,9,0.00
2012-11-15,44,33,25,31,25,19,92,75,46,30.53,30.33,2,0,7,0.00
2012-11-16,44,34,26,35,26,17,96,77,44,30.47,30.32,2,0,8,0.00
2012-11-17,46,35,26,35,26,14,96,74,38,30.70,30.47,3,0,10,0.00
2012-11-18,45,32,24,30,23,16,91,72,43,30.76,30.66,2,0,7,0.00
2012-11-19,45,31,22,30,24,13,96,77,41,30.66,30.31,1,0,6,0.00
2012-11-20,47,33,24,35,24,17,96,74,40,30.31,30.18,1,0,6,0.00
2012-11-24,31,30,29,26,17,15,81,58,53,30.20,29.64,6,1,13,0.00
2012-11-25,36,30,26,19,13,1,66,51,24,29.84,29.65,6,1,20,0.00
2012-11-26,41,32,25,31,22,12,95,69,39,30.25,29.84,5,0,17,0.00
2012-11-27,38,30,23,32,26,20,100,87,69,30.32,30.25,2,0,8,0.00
2012-11-28,40,29,22,30,22,15,96,76,47,30.26,30.12,2,0,6,0.00
2012-11-29,40,32,25,25,17,10,84,55,35,30.24,30.12,6,0,16,0.00
2012-11-30,32,26,21,23,6,-4,71,43,25,30.58,30.24,2,0,10,0.00
2012-12-1,28,26,21,28,19,2,100,78,41,30.66,30.52,0,0,0,0.00
2012-12-2,43,34,26,42,34,25,100,98,92,30.52,30.03,1,0,15,0.27
2012-12-3,51,42,30,46,37,28,100,85,56,30.34,30.02,2,0,10,0.00
2012-12-4,50,36,28,50,36,26,100,99,92,30.34,29.95,0,0,7,0.00
2012-12-5,51,42,29,51,33,14,100,71,51,30.17,29.85,7,1,20,0.11
2012-12-6,38,29,22,23,15,8,91,58,37,30.34,30.17,5,0,14,0.00
2012-12-7,39,31,21,36,27,18,100,87,66,30.30,30.06,7,0,14,0.06
2012-12-8,39,36,33,39,36,33,100,99,93,30.06,29.89,0,0,0,0.29
2012-12-9,44,36,30,36,30,16,100,83,50,30.31,29.97,2,0,11,0.01
2012-12-10,44,37,33,44,37,31,100,99,92,30.19,29.52,1,0,10,0.60
2012-12-11,42,37,29,42,31,17,100,78,60,30.16,29.59,3,0,12,0.02
2012-12-12,41,30,23,26,20,13,91,68,40,30.43,30.16,3,0,12,0.00
2012-12-13,41,29,22,31,23,13,96,80,46,30.48,30.29,0,0,5,0.00
2012-12-14,43,32,24,35,22,14,91,70,33,30.29,30.08,3,0,13,0.00
2012-12-15,38,31,24,24,15,-1,74,54,24,30.35,30.18,1,0,9,0.00
2012-12-16,26,24,23,24,13,3,100,64,41,30.35,30.14,5,0,8,0.00
2012-12-17,33,29,24,32,27,21,100,92,85,30.14,29.89,0,0,0,0.00
2012-12-18,38,35,32,38,34,31,100,98,93,29.88,29.47,0,0,8,0.97
2012-12-19,40,36,32,36,29,24,100,77,57,30.08,29.48,6,1,23,0.13
2012-12-20,38,34,29,34,28,24,100,78,61,30.24,30.04,2,0,7,0.00
2012-12-21,47,37,32,46,34,28,100,90,75,30.04,29.05,8,0,19,1.40
2012-12-22,35,30,25,31,20,10,88,65,49,29.64,29.19,6,1,19,0.00
2012-12-23,36,28,22,21,14,9,80,57,36,29.83,29.64,7,1,20,0.00
2012-12-24,35,29,25,21,16,7,77,58,37,30.07,29.83,5,0,15,0.00
2012-12-25,33,27,21,29,20,11,88,75,62,30.26,30.02,2,0,10,0.02
2012-12-26,34,25,16,24,14,9,92,64,42,30.34,29.97,6,0,14,0.00
2012-12-27,31,29,25,29,26,22,92,89,81,29.97,29.43,7,0,16,0.00
2012-12-28,33,26,22,22,19,14,84,73,63,30.02,29.67,5,0,15,0.12
2012-12-29,30,25,18,27,21,14,100,87,74,30.02,29.51,1,0,7,0.00
2012-12-30,28,22,17,25,13,4,95,67,52,29.96,29.50,8,1,23,0.00
2012-12-31,32,24,14,22,15,6,77,66,57,29.99,29.73,6,1,20,0.00
2013-1-1,31,24,8,25,11,-5,78,58,44,29.93,29.69,6,1,22,0.00